Herbert C Jackson — WL3972 — position and weather

sailwx.info

Track history (hours):
 
Tides and Currents Weather Stations Pressure Air Temp Water Temp Dewpoint Dewpoint Depression Visibility Wind Speed Wind Dir Waves Ship Positions

Herbert C Jackson

Owner: THE INTERLAKE STEAMSHIP COMPANY, Middleburg Heights, OH. More information available from US FCC via Universal Licensing System and Coast Guard Vessel Documentation Center.

Last reported at 2017-Aug-22 20:00 UTC. Time now 2017-Aug-22 20:38 UTC.
Position N 43°30' W 083°54'.

Length 239 m; draft 8.4 m.

Type: Cargo ship. MMSI: 366904930.

Wind from 310 at 8 knots

Barometer 1007.9 mb
Air temperature 22.8 ° C
Water temperature 21.5 ° C

Date/timePositionNaut miles runAvg speedWind from/ knotsBaromVisibWave heightAir tempDewpointWater temp
2017-Aug-22 20:00N 43°30' W 083°54'0 0.0 310 / 81007.9 22.8 21.5
2017-Aug-22 19:00N 43°30' W 083°54'6 6.0 300 / 181007.6 20.2 21.7
2017-Aug-22 18:00N 43°36' W 083°54'0 0.0 230 / 131006.6 24.0 21.8
2017-Aug-22 17:00N 43°36' W 083°54'0 0.0 240 / 141006.6 23.3 21.8
2017-Aug-22 16:00N 43°36' W 083°54'0 0.0 240 / 111006.9 23.4 21.8
2017-Aug-22 15:00N 43°36' W 083°54'4 4.3 220 / 121006.6 22.3 21.8
2017-Aug-22 14:00N 43°36' W 083°48'6 6.0 220 / 121006.6 21.6 21.6
2017-Aug-22 13:00N 43°42' W 083°48'7 7.4 210 / 261005.5 21.4 20.3
2017-Aug-22 12:00N 43°48' W 083°42'1312.8 220 / 311004.9 22.4 19.7
2017-Aug-22 11:00N 44°00' W 083°36'7 7.4 210 / 361004.5 22.2 19.3
2017-Aug-22 10:00N 44°06' W 083°30'1514.8 190 / 231005.5 22.2 19.0
2017-Aug-22 09:00N 44°18' W 083°18'7 7.4 190 / 191006.9 21.9 18.5
2017-Aug-22 08:00N 44°24' W 083°12'1212.0 200 / 151007.2 21.3 17.5
2017-Aug-22 07:00N 44°36' W 083°12'1312.7 190 / 161007.9 21.6 17.7
2017-Aug-22 06:00N 44°48' W 083°06'1212.0 200 / 191008.6 21.4 17.6
2017-Aug-22 05:00N 45°00' W 083°06'1312.7 180 / 181008.9 21.4 17.2
2017-Aug-22 04:00N 45°12' W 083°12'1010.4 170 / 191009.6 21.3 17.4
2017-Aug-22 03:00N 45°18' W 083°24'0 0.0 150 / 141010.3 22.4 15.3
2017-Aug-22 02:00N 45°18' W 083°24'0 0.0 150 / 51012.0 22.5 15.0
2017-Aug-22 01:00N 45°18' W 083°24'0 0.0 140 / 41012.7 22.3 15.3
2017-Aug-22 00:00N 45°18' W 083°24'0 0.0 140 / 61013.7 22.1 16.2
2017-Aug-21 23:00N 45°18' W 083°24'0 0.0 150 / 81013.7 23.6 16.1
2017-Aug-21 22:00N 45°18' W 083°24'0 0.0 160 / 81014.0 25.0 16.8
2017-Aug-21 21:00N 45°18' W 083°24'0 0.0 140 / 91014.3 25.1 16.7
2017-Aug-21 20:00N 45°18' W 083°24'0 0.0 100 / 101015.4 21.3 16.3
2017-Aug-21 19:00N 45°18' W 083°24'0 0.0 090 / 81015.7 20.8 15.7
2017-Aug-21 18:00N 45°18' W 083°24'0 0.0 100 / 81016.4 21.6 14.6
2017-Aug-21 17:00N 45°18' W 083°24'0 0.0 100 / 71017.1 22.2 14.6
2017-Aug-21 16:00N 45°18' W 083°24'0 0.0 040 / 31017.1 23.5 14.5
2017-Aug-21 15:00N 45°18' W 083°24'0 0.0 200 / 31017.1 23.8 14.5
2017-Aug-21 14:00N 45°18' W 083°24'1 2.0 270 / 51017.4 21.3 14.5
2017-Aug-21 13:20N 45°17' W 083°22'3 9.3
2017-Aug-21 13:00N 45°18' W 083°18'717.0 250 / 121016.7 20.6 17.2
2017-Aug-21 12:33N 45°12' W 083°12'312.4
2017-Aug-21 12:18N 45°09' W 083°09'413.4
2017-Aug-21 12:00N 45°06' W 083°06'1312.7 240 / 191016.7 20.4 17.2
2017-Aug-21 11:00N 44°54' W 083°00'1312.7 220 / 161016.7 19.9 17.3
2017-Aug-21 10:00N 44°42' W 082°54'1312.7 220 / 171015.7 20.3 16.8
2017-Aug-21 09:00N 44°30' W 082°48'3812.7 220 / 171016.4 20.5 17.6
2017-Aug-21 06:00N 43°54' W 082°30'1212.0 210 / 131017.4 20.9 18.4
2017-Aug-21 05:00N 43°42' W 082°30'1212.0 200 / 121017.7 21.2 18.5
2017-Aug-21 04:00N 43°30' W 082°30'1918.5 200 / 141017.7 22.1 19.3
2017-Aug-21 03:00N 43°12' W 082°24'1212.0 200 / 81018.1 22.5 19.7
2017-Aug-21 02:00N 43°00' W 082°24'7 7.4 180 / 81018.1 23.7 19.6
2017-Aug-21 01:00N 42°54' W 082°30'6 6.0 170 / 71018.1 23.5 19.5
2017-Aug-21 00:00N 42°48' W 082°30'0 0.0 160 / 61017.7 24.7 19.5
2017-Aug-20 23:00N 42°48' W 082°30'6 6.0 190 / 81017.7 26.6 19.4
2017-Aug-20 22:00N 42°42' W 082°30'1312.8 190 / 91017.7 26.1 19.4
2017-Aug-20 21:00N 42°30' W 082°36'1110.7 160 / 61017.5 24.8 19.6
2017-Aug-20 20:00N 42°24' W 082°48'1110.7 170 / 91017.5 25.7 20.7
2017-Aug-20 19:00N 42°18' W 083°00'4 4.4 160 / 81017.9 26.8 20.5
2017-Aug-20 18:00N 42°18' W 083°06'0 0.0 190 / 61018.6 26.1 20.8
2017-Aug-20 17:00N 42°18' W 083°06'0 0.0 190 / 101018.9 25.6 20.7
2017-Aug-20 16:00N 42°18' W 083°06'0 0.0 190 / 91018.9 24.4 20.7
2017-Aug-20 15:00N 42°18' W 083°06'0 0.0 200 / 81018.6 23.5 20.7
2017-Aug-20 14:00N 42°18' W 083°06'0 0.0 190 / 71018.6 22.5 20.6
2017-Aug-20 13:00N 42°18' W 083°06'6 6.0 190 / 41018.9 21.0 20.6
2017-Aug-20 12:00N 42°12' W 083°06'6 6.0 260 / 21018.2 19.3 20.4
2017-Aug-20 11:00N 42°06' W 083°06'1212.0 010 / 21017.1 19.9 20.6
2017-Aug-20 10:00N 41°54' W 083°06'1313.4 200 / 151016.8 22.3 21.2
2017-Aug-20 09:00N 41°54' W 082°48'1514.7 210 / 141016.8 23.0 21.5
2017-Aug-20 08:00N 41°48' W 082°30'1110.8 210 / 121016.4 23.4 21.5
2017-Aug-20 07:00N 41°42' W 082°18'1514.7 190 / 151016.4 22.2 21.0
2017-Aug-20 06:00N 41°36' W 082°00'1110.8 200 / 131016.4 21.7 21.1
2017-Aug-20 05:00N 41°30' W 081°48'4 4.5 180 / 91016.4 21.8 21.2
2017-Aug-20 04:00N 41°30' W 081°42'0 0.0 120 / 31016.1 21.4 21.1
2017-Aug-20 03:00N 41°30' W 081°42'0 0.0 150 / 31015.4 22.0 21.1
2017-Aug-20 02:00N 41°30' W 081°42'0 0.0 130 / 11015.4 22.9 21.1
2017-Aug-20 01:00N 41°30' W 081°42'0 0.0 040 / 21015.1 22.9 21.1
2017-Aug-20 00:00N 41°30' W 081°42'0 0.0 040 / 41014.7 23.2 21.2
2017-Aug-19 23:00N 41°30' W 081°42'0 0.0 1014.4 23.5 21.2
2017-Aug-19 22:00N 41°30' W 081°42'0 0.0 280 / 81013.4 22.9 20.9
2017-Aug-19 21:00N 41°30' W 081°42'0 0.0 290 / 111013.4 22.9 21.0
2017-Aug-19 20:00N 41°30' W 081°42'0 0.0 250 / 91013.4 22.2 21.2
2017-Aug-19 19:00N 41°30' W 081°42'4 4.5 290 / 111013.4 22.1 21.1
2017-Aug-19 18:00N 41°30' W 081°48'7 7.5 290 / 81013.7 22.5 21.0
2017-Aug-19 17:00N 41°36' W 081°54'1110.8 270 / 101013.7 22.4 20.8
2017-Aug-19 16:00N 41°42' W 082°06'9 9.0 280 / 101013.410.8 22.0 20.9
2017-Aug-19 15:00N 41°42' W 082°18'7 7.5 270 / 101013.4 21.5 20.8
2017-Aug-19 14:00N 41°48' W 082°24'1110.8 240 / 121013.0 21.0 21.3
2017-Aug-19 13:00N 41°54' W 082°36'9 8.9 230 / 121012.7 21.3 21.4
2017-Aug-19 12:00N 41°54' W 082°48'9 8.9 260 / 101012.4 21.2 21.2
2017-Aug-19 11:00N 41°54' W 083°00'7 7.5 200 / 51011.3 20.9 21.0
2017-Aug-19 10:00N 42°00' W 083°06'1212.0 240 / 121011.3 19.9 20.5
2017-Aug-19 09:00N 42°12' W 083°06'7 7.5 200 / 221011.1 18.9 20.5
2017-Aug-19 08:00N 42°18' W 083°00'1110.7 220 / 71011.1 19.8 20.3
2017-Aug-19 07:00N 42°24' W 082°48'7 7.5 220 / 131011.1 20.5 20.3
2017-Aug-19 06:00N 42°30' W 082°42'1110.7 240 / 161011.1 21.1 19.5
2017-Aug-19 05:00N 42°36' W 082°30'1212.0 230 / 21011.6 20.5 19.5
2017-Aug-19 04:00N 42°48' W 082°30'1312.8 250 / 31011.0 20.4 19.2
2017-Aug-19 03:00N 43°00' W 082°24'6 6.0 240 / 71010.6 21.1 19.2
2017-Aug-19 02:00N 43°06' W 082°24'1212.0 250 / 101009.9 21.3 19.2
2017-Aug-19 01:00N 43°18' W 082°24'1212.0 330 / 141009.6 19.9 18.8
2017-Aug-19 00:00N 43°30' W 082°24'1312.8 280 / 221008.6 20.9 18.6
2017-Aug-18 23:00N 43°42' W 082°30'1212.0 270 / 211007.9 20.3 18.4
2017-Aug-18 22:00N 43°54' W 082°30'1312.8 250 / 151007.2 21.1 18.4
2017-Aug-18 21:00N 44°06' W 082°36'1312.7 250 / 221005.9 21.2 18.2
2017-Aug-18 20:00N 44°18' W 082°42'2512.7 240 / 171005.5 20.7 17.5
2017-Aug-18 18:00N 44°42' W 082°54'1312.7 240 / 171003.910.8 20.0 16.6
2017-Aug-18 17:00N 44°54' W 083°00'1212.0 240 / 171003.5 20.4 17.0
2017-Aug-18 16:00N 45°06' W 083°00'1514.7 230 / 171002.2 19.8 17.4
2017-Aug-18 15:00N 45°18' W 083°12'711.5 240 / 161002.2 20.1 17.3
2017-Aug-18 14:25N 45°23' W 083°18'410.4
2017-Aug-18 14:00N 45°24' W 083°24'817.4 230 / 181001.5 19.4 17.2
2017-Aug-18 13:30N 45°32' W 083°27'4 8.3
2017-Aug-18 13:00N 45°36' W 083°30'2512.3 230 / 221000.1 5.4 19.6 17.4
2017-Aug-18 11:00N 45°54' W 083°54'1312.7 230 / 14998.8 19.3 17.0
2017-Aug-18 10:00N 46°06' W 084°00'1010.3 180 / 10998.8 19.7 16.8
2017-Aug-18 09:00N 46°12' W 084°12'6 6.0 140 / 8998.8 19.4 16.2
2017-Aug-18 08:00N 46°18' W 084°12'1312.7 100 / 16999.1 18.5 16.1
2017-Aug-18 07:00N 46°30' W 084°18'0 0.0 090 / 121000.1 18.3 15.6
2017-Aug-18 06:00N 46°30' W 084°18'4 4.1 070 / 81000.1 18.0 16.1
2017-Aug-18 05:00N 46°30' W 084°24'8 8.3 080 / 91001.0 18.2 15.0
2017-Aug-18 04:00N 46°30' W 084°36'1010.2 080 / 181001.4 17.8 8.4
2017-Aug-18 03:00N 46°36' W 084°48'1312.7 090 / 181001.4 17.7 14.2
2017-Aug-18 02:00N 46°48' W 084°54'1413.7 110 / 201001.4 17.6 11.9
2017-Aug-18 01:00N 46°54' W 085°12'1413.7 100 / 161001.4 15.9 14.1
2017-Aug-18 00:00N 46°48' W 085°30'1212.3 110 / 201001.0 18.1 15.2
2017-Aug-17 23:00N 46°48' W 085°48'1212.3 090 / 181001.0 18.4 15.8
2017-Aug-17 22:00N 46°48' W 086°06'1413.7 080 / 211001.0 18.4 15.5
2017-Aug-17 21:00N 46°42' W 086°24'1413.7 130 / 121001.4 20.1 14.8
2017-Aug-17 20:00N 46°48' W 086°42'1212.3 110 / 121001.4 5.4 19.3 14.2
2017-Aug-17 19:00N 46°48' W 087°00'1413.7 110 / 181000.7 18.3 13.8
2017-Aug-17 18:00N 46°54' W 087°18'1010.2 110 / 191001.0 17.2 13.3
2017-Aug-17 17:00N 47°00' W 087°30'1312.7 110 / 211002.4 16.2 13.2
2017-Aug-17 16:00N 47°12' W 087°36'1312.7 090 / 281002.7 15.4 12.5
2017-Aug-17 15:00N 47°24' W 087°42'7 7.2 100 / 221004.1 15.7 13.4
2017-Aug-17 14:00N 47°30' W 087°48'1413.5 090 / 221005.1 14.5 11.8
2017-Aug-17 13:00N 47°36' W 088°06'1212.1 070 / 201005.8 14.5 12.1
2017-Aug-17 12:00N 47°36' W 088°24'8 8.1 070 / 241005.8 14.5 11.6
2017-Aug-17 11:00N 47°36' W 088°36'1413.5 060 / 201005.8 14.6 12.4
2017-Aug-17 10:00N 47°30' W 088°54'1212.2 040 / 211006.4 15.3 13.3
2017-Aug-17 09:00N 47°30' W 089°12'2512.5 050 / 211006.4 15.9 14.3
2017-Aug-17 07:00N 47°24' W 089°48'1212.2 050 / 201008.1 16.2 14.2
2017-Aug-17 06:00N 47°24' W 090°06'1212.2 040 / 241008.5 16.3 13.9
2017-Aug-17 05:00N 47°24' W 090°24'1413.6 050 / 281008.1 16.4 15.2
2017-Aug-17 04:00N 47°18' W 090°42'1212.2 050 / 271009.5 16.8 15.1
2017-Aug-17 03:00N 47°18' W 091°00'8 8.1 040 / 261010.2 17.2 15.9
2017-Aug-17 02:00N 47°18' W 091°12'4 4.1 030 / 261010.8 17.3 16.0
2017-Aug-17 01:00N 47°18' W 091°18'0 0.0 020 / 101012.5 16.9 15.9
2017-Aug-17 00:00N 47°18' W 091°18'0 0.0 030 / 111012.5 16.7 16.0
2017-Aug-16 23:00N 47°18' W 091°18'0 0.0 020 / 131012.9 16.4 16.0
2017-Aug-16 22:00N 47°18' W 091°18'0 0.0 040 / 161013.5 16.4 16.0
2017-Aug-16 21:00N 47°18' W 091°18'0 0.0 030 / 141013.9 16.4 16.0
2017-Aug-16 20:00N 47°18' W 091°18'0 0.0 050 / 121014.6 16.7 16.0
2017-Aug-16 19:00N 47°18' W 091°18'0 0.0 040 / 141014.9 17.1 16.0
2017-Aug-16 18:00N 47°18' W 091°18'6 6.0 040 / 161015.2 17.0 15.9
2017-Aug-16 17:00N 47°12' W 091°18'7 7.3 050 / 201014.6 16.5 16.1
2017-Aug-16 16:00N 47°06' W 091°24'1312.8 040 / 221014.2 16.7 16.1
2017-Aug-16 15:00N 46°58' W 091°38'31936.6
2017-Aug-16 15:00N 47°00' W 091°36'917.6 050 / 201014.2 16.9 16.1
2017-Aug-16 14:30N 46°54' W 091°45'611.8
2017-Aug-16 14:00N 46°54' W 091°54'3716.5 040 / 251013.5 17.0 16.5
2017-Aug-16 13:59N 46°51' W 091°53'612.0
2017-Aug-16 13:30N 46°48' W 092°01'4 8.7
2017-Aug-16 13:00N 46°46' W 092°06'2105.8
2017-Aug-16 13:00N 46°48' W 092°06'3 6.6 030 / 151015.2 16.7 17.9
2017-Aug-16 12:30N 46°45' W 092°06'1 2.4
2017-Aug-16 12:00N 46°45' W 092°08'3203.6
2017-Aug-16 12:00N 46°42' W 092°06'3 3.8 010 / 51015.9 16.7 19.3
2017-Aug-16 11:08N 46°45' W 092°08'322.7
2017-Aug-16 11:00N 46°42' W 092°06'320.5 1016.3 16.7 19.3
2017-Aug-16 10:50N 46°45' W 092°08'0 0.0
2017-Aug-16 10:23N 46°45' W 092°08'3 8.2
2017-Aug-16 10:00N 46°42' W 092°06'330.3 030 / 41016.3 16.7 19.3
2017-Aug-16 09:53N 46°45' W 092°08'0 0.0
2017-Aug-16 09:23N 46°45' W 092°08'3 8.2
2017-Aug-16 09:00N 46°42' W 092°06'356.6 160 / 31016.3 16.7 19.3
2017-Aug-16 08:56N 46°45' W 092°08'0 0.0
2017-Aug-16 08:11N 46°45' W 092°08'316.8
2017-Aug-16 08:00N 46°42' W 092°06'357.1 050 / 51016.3 16.5 19.4
2017-Aug-16 07:56N 46°45' W 092°08'0 0.0
2017-Aug-16 07:26N 46°45' W 092°08'3 7.3
2017-Aug-16 07:00N 46°42' W 092°06'356.6 010 / 41016.3 16.7 19.4
2017-Aug-16 06:56N 46°45' W 092°08'0 0.0
2017-Aug-16 06:26N 46°45' W 092°08'3 7.3
2017-Aug-16 06:00N 46°42' W 092°06'350.7 010 / 41016.3 16.8 19.3
2017-Aug-16 05:56N 46°45' W 092°08'2 3.6
2017-Aug-16 05:30N 46°45' W 092°06'2 4.5
2017-Aug-16 05:00N 46°47' W 092°04'1106.9
2017-Aug-16 05:00N 46°48' W 092°06'3 6.4 030 / 111016.3 16.7 16.7
2017-Aug-16 04:30N 46°48' W 092°01'3 6.1
2017-Aug-16 04:00N 46°49' W 091°57'2138.1
2017-Aug-16 04:00N 46°48' W 092°00'511.0 050 / 161016.3 17.3 16.4
2017-Aug-16 03:30N 46°50' W 091°53'5 9.0
2017-Aug-16 03:00N 46°52' W 091°47'2137.3
2017-Aug-16 03:00N 46°54' W 091°48'713.9 060 / 161015.6 17.3 16.5
2017-Aug-16 02:30N 46°54' W 091°38'510.7
2017-Aug-16 02:00N 46°54' W 091°30'3306.4 060 / 171015.6 17.0 15.7
2017-Aug-16 01:59N 46°57' W 091°29'1212.8
2017-Aug-16 01:01N 47°01' W 091°12'012.8
2017-Aug-16 01:00N 47°01' W 091°12'181.6
2017-Aug-16 01:00N 47°00' W 091°12'713.9 070 / 141016.3 17.2 15.9
2017-Aug-16 00:28N 47°03' W 091°03'613.3
2017-Aug-16 00:00N 47°06' W 090°54'1212.3 080 / 121016.6 17.7 15.7
2017-Aug-15 23:00N 47°06' W 090°36'1413.6 100 / 91016.6 16.6 15.6
2017-Aug-15 22:00N 47°12' W 090°18'1212.2 100 / 91016.6 16.3 15.3
2017-Aug-15 21:00N 47°12' W 090°00'1413.6 100 / 91016.6 16.1 13.5
2017-Aug-15 20:00N 47°18' W 089°42'1212.2 090 / 71016.6 16.1 14.3
2017-Aug-15 19:00N 47°18' W 089°24'1413.6 080 / 61016.9 15.9 15.7
2017-Aug-15 18:00N 47°24' W 089°06'1212.2 070 / 81016.9 15.0 13.8
2017-Aug-15 17:00N 47°24' W 088°48'1413.6 060 / 81016.9 14.4 12.8
2017-Aug-15 16:00N 47°30' W 088°30'1212.2 060 / 91016.6 14.2 13.2
2017-Aug-15 15:00N 47°30' W 088°12'1212.2 040 / 101015.9 13.8 11.6
2017-Aug-15 14:00N 47°30' W 087°54'1212.2 020 / 141014.6 14.4 12.1
2017-Aug-15 13:00N 47°30' W 087°36'1413.6 020 / 171013.5 14.4 12.7
2017-Aug-15 12:00N 47°24' W 087°18'1413.6 350 / 141012.5 12.5 10.6
2017-Aug-15 11:00N 47°18' W 087°00'1413.6 280 / 111011.9 13.6 11.0
2017-Aug-15 10:00N 47°12' W 086°42'1212.2 240 / 111011.5 14.3 12.4
2017-Aug-15 09:00N 47°12' W 086°24'1413.6 260 / 131010.8 15.1 13.0
2017-Aug-15 08:00N 47°06' W 086°06'3511.6 260 / 71011.2 15.2 12.9
2017-Aug-15 05:00N 46°54' W 085°18'1413.7 310 / 81010.2 16.8 14.5
2017-Aug-15 04:00N 46°48' W 085°00'1010.2 270 / 131010.2 17.8 14.2
2017-Aug-15 03:00N 46°42' W 084°48'1514.6 270 / 51009.8 18.5 14.5
2017-Aug-15 02:00N 46°30' W 084°36'6 7.9 220 / 101009.8 19.1 16.0
2017-Aug-15 01:15N 46°28' W 084°28'312.8
2017-Aug-15 01:00N 46°30' W 084°24'0 0.0 240 / 41009.8 19.9 15.9
2017-Aug-15 00:00N 46°30' W 084°24'4 4.1 270 / 31010.8 21.1 15.6
2017-Aug-14 23:00N 46°30' W 084°18'7 7.3 180 / 61010.3 20.9 15.6
2017-Aug-14 22:00N 46°24' W 084°12'7 7.3 160 / 111010.3 20.8 15.6
2017-Aug-14 21:00N 46°18' W 084°06'519.4 160 / 81011.0 20.8 15.9
2017-Aug-14 20:44N 46°13' W 084°07'2 9.8
2017-Aug-14 20:30N 46°11' W 084°06'612.4
2017-Aug-14 20:00N 46°06' W 084°00'1 8.2 140 / 101011.6 20.4 16.7
2017-Aug-14 19:55N 46°06' W 084°01'410.3
2017-Aug-14 19:30N 46°03' W 083°57'5 9.6
2017-Aug-14 19:00N 45°59' W 083°53'1103.3
2017-Aug-14 19:00N 46°00' W 083°54'714.1 130 / 91012.0 19.8 17.0
2017-Aug-14 18:30N 45°54' W 083°48'612.7
2017-Aug-14 18:00N 45°52' W 083°40'3213.0
2017-Aug-14 18:00N 45°54' W 083°42'917.7 150 / 131012.3 20.3 17.4
2017-Aug-14 17:30N 45°49' W 083°32'612.8
2017-Aug-14 17:00N 45°46' W 083°24'2240.2
2017-Aug-14 17:00N 45°48' W 083°24'510.5 160 / 111013.010.8 19.6 17.1
2017-Aug-14 16:30N 45°49' W 083°17'611.2
2017-Aug-14 16:00N 45°54' W 083°12'147.8 170 / 131013.0 20.1 17.8
2017-Aug-14 15:58N 45°55' W 083°14'1 1.4
2017-Aug-14 15:00N 45°54' W 083°12'1 1.1 200 / 51013.7 19.9 17.9
2017-Aug-14 13:48N 45°55' W 083°13'0 0.0
2017-Aug-14 13:24N 45°55' W 083°13'0 0.0
2017-Aug-14 11:51N 45°55' W 083°13'0 0.0
2017-Aug-14 10:30N 45°55' W 083°13'0 0.0
2017-Aug-14 10:00N 45°55' W 083°13'1 1.0
2017-Aug-14 09:16N 45°55' W 083°14'2 6.9
2017-Aug-14 09:00N 45°54' W 083°12'284.6 340 / 21014.3 19.1 17.7
2017-Aug-14 08:58N 45°53' W 083°15'612.6
2017-Aug-14 08:30N 45°47' W 083°17'612.5
2017-Aug-14 08:00N 45°41' W 083°18'1103.0
2017-Aug-14 08:00N 45°42' W 083°18'715.2 300 / 91014.3 19.8 17.3
2017-Aug-14 07:30N 45°35' W 083°20'612.5
2017-Aug-14 07:00N 45°29' W 083°22'612.6
2017-Aug-14 06:30N 45°22' W 083°24'4 8.6
2017-Aug-14 06:00N 45°18' W 083°24'0 0.0 250 / 81015.0 18.9 17.7
2017-Aug-14 05:00N 45°18' W 083°24'0 0.0 190 / 21015.4 19.3 18.0
2017-Aug-14 04:00N 45°18' W 083°24'0 0.0 210 / 31015.4 19.9 17.9
2017-Aug-14 03:00N 45°18' W 083°24'0 0.0 190 / 61015.4 20.0 18.3
2017-Aug-14 02:00N 45°18' W 083°24'0 0.0 160 / 31015.0 20.6 18.4
2017-Aug-14 01:00N 45°18' W 083°24'0 0.0 150 / 21014.7 21.3 18.3
2017-Aug-14 00:00N 45°18' W 083°24'0 0.0 140 / 31015.0 22.0 18.4
2017-Aug-13 23:00N 45°18' W 083°24'1 3.7 140 / 101015.0 22.8 18.2
2017-Aug-13 22:45N 45°19' W 083°25'0 1.7
2017-Aug-13 22:30N 45°19' W 083°25'1 2.3
2017-Aug-13 22:00N 45°18' W 083°24'0 0.0 140 / 141015.4 20.2 18.0
2017-Aug-13 21:00N 45°18' W 083°24'4 4.2 120 / 141016.0 20.3 18.1
2017-Aug-13 20:00N 45°18' W 083°18'1514.7 160 / 101016.7 21.4 17.9
2017-Aug-13 19:00N 45°06' W 083°06'1212.0 140 / 51016.7 20.4 17.3
2017-Aug-13 18:00N 44°54' W 083°06'1312.7 170 / 91017.1 19.9 17.4
2017-Aug-13 17:00N 44°42' W 083°12'1212.0 180 / 91017.4 18.8 16.9
2017-Aug-13 16:00N 44°30' W 083°12'1212.0 190 / 41017.4 18.9 17.3
2017-Aug-13 15:00N 44°18' W 083°12'1817.6 330 / 21017.4 18.3 17.8
2017-Aug-13 14:00N 44°06' W 083°30'7 7.4 320 / 101017.4 17.6 18.1
2017-Aug-13 13:00N 44°00' W 083°36'1312.8 310 / 121017.1 17.5 19.1
2017-Aug-13 12:00N 43°48' W 083°42'1312.8 330 / 131017.4 18.1 19.8
2017-Aug-13 11:00N 43°36' W 083°48'4 4.3 270 / 51017.4 12.8 21.2
2017-Aug-13 10:00N 43°36' W 083°54'6 6.0 290 / 41017.4 13.2 21.1
2017-Aug-13 09:00N 43°30' W 083°54'0 0.0 270 / 51017.1 14.5 21.0
2017-Aug-13 08:00N 43°30' W 083°54'6 6.0 260 / 41017.1 13.9 21.1
2017-Aug-13 07:00N 43°24' W 083°54'6 6.0 310 / 21016.7 15.4 21.5
2017-Aug-13 06:00N 43°30' W 083°54'0 0.0 310 / 21016.7 16.0 21.2
2017-Aug-13 05:00N 43°30' W 083°54'0 0.0 300 / 31016.4 16.6 21.1
2017-Aug-13 04:00N 43°30' W 083°54'0 0.0 300 / 51016.4 17.6 21.2
2017-Aug-13 03:00N 43°30' W 083°54'0 0.0 280 / 31016.0 18.2 21.2
2017-Aug-13 02:00N 43°30' W 083°54'0 0.0 040 1015.7 18.6 21.4
2017-Aug-13 01:00N 43°30' W 083°54'0 0.0 210 / 31015.4 20.0 21.0
2017-Aug-13 00:00N 43°30' W 083°54'6 6.0 190 / 91015.0 20.5 21.2
2017-Aug-12 23:00N 43°36' W 083°54'0 0.0 350 / 21015.0 21.7 21.5
2017-Aug-12 22:00N 43°36' W 083°54'0 0.0 090 / 31015.0 20.6 21.4
2017-Aug-12 21:00N 43°36' W 083°54'4 4.3 340 / 21015.0 19.8 21.4
2017-Aug-12 20:00N 43°36' W 083°48'   020 / 41015.0 22.2 21.4
Track history (hours):
 
Tides and Currents Weather Stations Pressure Air Temp Water Temp Dewpoint Dewpoint Depression Visibility Wind Speed Wind Dir Waves Ship Positions

Herbert C Jackson

Owner: THE INTERLAKE STEAMSHIP COMPANY, Middleburg Heights, OH. More information available from US FCC via Universal Licensing System and Coast Guard Vessel Documentation Center.

Last reported at 2017-Aug-22 20:00 UTC. Time now 2017-Aug-22 20:38 UTC.
Position N 43°30' W 083°54'.

Length 239 m; draft 8.4 m.

Type: Cargo ship. MMSI: 366904930.

Wind from 310 at 8 knots

Barometer 1007.9 mb
Air temperature 22.8 ° C
Water temperature 21.5 ° C

Date/timePositionNaut miles runAvg speedWind from/ knotsBaromVisibWave heightAir tempDewpointWater temp
2017-Aug-22 20:00N 43°30' W 083°54'0 0.0 310 / 81007.9 22.8 21.5
2017-Aug-22 19:00N 43°30' W 083°54'6 6.0 300 / 181007.6 20.2 21.7
2017-Aug-22 18:00N 43°36' W 083°54'0 0.0 230 / 131006.6 24.0 21.8
2017-Aug-22 17:00N 43°36' W 083°54'0 0.0 240 / 141006.6 23.3 21.8
2017-Aug-22 16:00N 43°36' W 083°54'0 0.0 240 / 111006.9 23.4 21.8
2017-Aug-22 15:00N 43°36' W 083°54'4 4.3 220 / 121006.6 22.3 21.8
2017-Aug-22 14:00N 43°36' W 083°48'6 6.0 220 / 121006.6 21.6 21.6
2017-Aug-22 13:00N 43°42' W 083°48'7 7.4 210 / 261005.5 21.4 20.3
2017-Aug-22 12:00N 43°48' W 083°42'1312.8 220 / 311004.9 22.4 19.7
2017-Aug-22 11:00N 44°00' W 083°36'7 7.4 210 / 361004.5 22.2 19.3
2017-Aug-22 10:00N 44°06' W 083°30'1514.8 190 / 231005.5 22.2 19.0
2017-Aug-22 09:00N 44°18' W 083°18'7 7.4 190 / 191006.9 21.9 18.5
2017-Aug-22 08:00N 44°24' W 083°12'1212.0 200 / 151007.2 21.3 17.5
2017-Aug-22 07:00N 44°36' W 083°12'1312.7 190 / 161007.9 21.6 17.7
2017-Aug-22 06:00N 44°48' W 083°06'1212.0 200 / 191008.6 21.4 17.6
2017-Aug-22 05:00N 45°00' W 083°06'1312.7 180 / 181008.9 21.4 17.2
2017-Aug-22 04:00N 45°12' W 083°12'1010.4 170 / 191009.6 21.3 17.4
2017-Aug-22 03:00N 45°18' W 083°24'0 0.0 150 / 141010.3 22.4 15.3
2017-Aug-22 02:00N 45°18' W 083°24'0 0.0 150 / 51012.0 22.5 15.0
2017-Aug-22 01:00N 45°18' W 083°24'0 0.0 140 / 41012.7 22.3 15.3
2017-Aug-22 00:00N 45°18' W 083°24'0 0.0 140 / 61013.7 22.1 16.2
2017-Aug-21 23:00N 45°18' W 083°24'0 0.0 150 / 81013.7 23.6 16.1
2017-Aug-21 22:00N 45°18' W 083°24'0 0.0 160 / 81014.0 25.0 16.8
2017-Aug-21 21:00N 45°18' W 083°24'0 0.0 140 / 91014.3 25.1 16.7
2017-Aug-21 20:00N 45°18' W 083°24'0 0.0 100 / 101015.4 21.3 16.3
2017-Aug-21 19:00N 45°18' W 083°24'0 0.0 090 / 81015.7 20.8 15.7
2017-Aug-21 18:00N 45°18' W 083°24'0 0.0 100 / 81016.4 21.6 14.6
2017-Aug-21 17:00N 45°18' W 083°24'0 0.0 100 / 71017.1 22.2 14.6
2017-Aug-21 16:00N 45°18' W 083°24'0 0.0 040 / 31017.1 23.5 14.5
2017-Aug-21 15:00N 45°18' W 083°24'0 0.0 200 / 31017.1 23.8 14.5
2017-Aug-21 14:00N 45°18' W 083°24'1 2.0 270 / 51017.4 21.3 14.5
2017-Aug-21 13:20N 45°17' W 083°22'3 9.3
2017-Aug-21 13:00N 45°18' W 083°18'717.0 250 / 121016.7 20.6 17.2
2017-Aug-21 12:33N 45°12' W 083°12'312.4
2017-Aug-21 12:18N 45°09' W 083°09'413.4
2017-Aug-21 12:00N 45°06' W 083°06'1312.7 240 / 191016.7 20.4 17.2
2017-Aug-21 11:00N 44°54' W 083°00'1312.7 220 / 161016.7 19.9 17.3
2017-Aug-21 10:00N 44°42' W 082°54'1312.7 220 / 171015.7 20.3 16.8
2017-Aug-21 09:00N 44°30' W 082°48'3812.7 220 / 171016.4 20.5 17.6
2017-Aug-21 06:00N 43°54' W 082°30'1212.0 210 / 131017.4 20.9 18.4
2017-Aug-21 05:00N 43°42' W 082°30'1212.0 200 / 121017.7 21.2 18.5
2017-Aug-21 04:00N 43°30' W 082°30'1918.5 200 / 141017.7 22.1 19.3
2017-Aug-21 03:00N 43°12' W 082°24'1212.0 200 / 81018.1 22.5 19.7
2017-Aug-21 02:00N 43°00' W 082°24'7 7.4 180 / 81018.1 23.7 19.6
2017-Aug-21 01:00N 42°54' W 082°30'6 6.0 170 / 71018.1 23.5 19.5
2017-Aug-21 00:00N 42°48' W 082°30'0 0.0 160 / 61017.7 24.7 19.5
2017-Aug-20 23:00N 42°48' W 082°30'6 6.0 190 / 81017.7 26.6 19.4
2017-Aug-20 22:00N 42°42' W 082°30'1312.8 190 / 91017.7 26.1 19.4
2017-Aug-20 21:00N 42°30' W 082°36'1110.7 160 / 61017.5 24.8 19.6
2017-Aug-20 20:00N 42°24' W 082°48'1110.7 170 / 91017.5 25.7 20.7
2017-Aug-20 19:00N 42°18' W 083°00'4 4.4 160 / 81017.9 26.8 20.5
2017-Aug-20 18:00N 42°18' W 083°06'0 0.0 190 / 61018.6 26.1 20.8
2017-Aug-20 17:00N 42°18' W 083°06'0 0.0 190 / 101018.9 25.6 20.7
2017-Aug-20 16:00N 42°18' W 083°06'0 0.0 190 / 91018.9 24.4 20.7
2017-Aug-20 15:00N 42°18' W 083°06'0 0.0 200 / 81018.6 23.5 20.7
2017-Aug-20 14:00N 42°18' W 083°06'0 0.0 190 / 71018.6 22.5 20.6
2017-Aug-20 13:00N 42°18' W 083°06'6 6.0 190 / 41018.9 21.0 20.6
2017-Aug-20 12:00N 42°12' W 083°06'6 6.0 260 / 21018.2 19.3 20.4
2017-Aug-20 11:00N 42°06' W 083°06'1212.0 010 / 21017.1 19.9 20.6
2017-Aug-20 10:00N 41°54' W 083°06'1313.4 200 / 151016.8 22.3 21.2
2017-Aug-20 09:00N 41°54' W 082°48'1514.7 210 / 141016.8 23.0 21.5
2017-Aug-20 08:00N 41°48' W 082°30'1110.8 210 / 121016.4 23.4 21.5
2017-Aug-20 07:00N 41°42' W 082°18'1514.7 190 / 151016.4 22.2 21.0
2017-Aug-20 06:00N 41°36' W 082°00'1110.8 200 / 131016.4 21.7 21.1
2017-Aug-20 05:00N 41°30' W 081°48'4 4.5 180 / 91016.4 21.8 21.2
2017-Aug-20 04:00N 41°30' W 081°42'0 0.0 120 / 31016.1 21.4 21.1
2017-Aug-20 03:00N 41°30' W 081°42'0 0.0 150 / 31015.4 22.0 21.1
2017-Aug-20 02:00N 41°30' W 081°42'0 0.0 130 / 11015.4 22.9 21.1
2017-Aug-20 01:00N 41°30' W 081°42'0 0.0 040 / 21015.1 22.9 21.1
2017-Aug-20 00:00N 41°30' W 081°42'0 0.0 040 / 41014.7 23.2 21.2
2017-Aug-19 23:00N 41°30' W 081°42'0 0.0 1014.4 23.5 21.2
2017-Aug-19 22:00N 41°30' W 081°42'0 0.0 280 / 81013.4 22.9 20.9
2017-Aug-19 21:00N 41°30' W 081°42'0 0.0 290 / 111013.4 22.9 21.0
2017-Aug-19 20:00N 41°30' W 081°42'0 0.0 250 / 91013.4 22.2 21.2
2017-Aug-19 19:00N 41°30' W 081°42'4 4.5 290 / 111013.4 22.1 21.1
2017-Aug-19 18:00N 41°30' W 081°48'7 7.5 290 / 81013.7 22.5 21.0
2017-Aug-19 17:00N 41°36' W 081°54'1110.8 270 / 101013.7 22.4 20.8
2017-Aug-19 16:00N 41°42' W 082°06'9 9.0 280 / 101013.410.8 22.0 20.9
2017-Aug-19 15:00N 41°42' W 082°18'7 7.5 270 / 101013.4 21.5 20.8
2017-Aug-19 14:00N 41°48' W 082°24'1110.8 240 / 121013.0 21.0 21.3
2017-Aug-19 13:00N 41°54' W 082°36'9 8.9 230 / 121012.7 21.3 21.4
2017-Aug-19 12:00N 41°54' W 082°48'9 8.9 260 / 101012.4 21.2 21.2
2017-Aug-19 11:00N 41°54' W 083°00'7 7.5 200 / 51011.3 20.9 21.0
2017-Aug-19 10:00N 42°00' W 083°06'1212.0 240 / 121011.3 19.9 20.5
2017-Aug-19 09:00N 42°12' W 083°06'7 7.5 200 / 221011.1 18.9 20.5
2017-Aug-19 08:00N 42°18' W 083°00'1110.7 220 / 71011.1 19.8 20.3
2017-Aug-19 07:00N 42°24' W 082°48'7 7.5 220 / 131011.1 20.5 20.3
2017-Aug-19 06:00N 42°30' W 082°42'1110.7 240 / 161011.1 21.1 19.5
2017-Aug-19 05:00N 42°36' W 082°30'1212.0 230 / 21011.6 20.5 19.5
2017-Aug-19 04:00N 42°48' W 082°30'1312.8 250 / 31011.0 20.4 19.2
2017-Aug-19 03:00N 43°00' W 082°24'6 6.0 240 / 71010.6 21.1 19.2
2017-Aug-19 02:00N 43°06' W 082°24'1212.0 250 / 101009.9 21.3 19.2
2017-Aug-19 01:00N 43°18' W 082°24'1212.0 330 / 141009.6 19.9 18.8
2017-Aug-19 00:00N 43°30' W 082°24'1312.8 280 / 221008.6 20.9 18.6
2017-Aug-18 23:00N 43°42' W 082°30'1212.0 270 / 211007.9 20.3 18.4
2017-Aug-18 22:00N 43°54' W 082°30'1312.8 250 / 151007.2 21.1 18.4
2017-Aug-18 21:00N 44°06' W 082°36'1312.7 250 / 221005.9 21.2 18.2
2017-Aug-18 20:00N 44°18' W 082°42'2512.7 240 / 171005.5 20.7 17.5
2017-Aug-18 18:00N 44°42' W 082°54'1312.7 240 / 171003.910.8 20.0 16.6
2017-Aug-18 17:00N 44°54' W 083°00'1212.0 240 / 171003.5 20.4 17.0
2017-Aug-18 16:00N 45°06' W 083°00'1514.7 230 / 171002.2 19.8 17.4
2017-Aug-18 15:00N 45°18' W 083°12'711.5 240 / 161002.2 20.1 17.3
2017-Aug-18 14:25N 45°23' W 083°18'410.4
2017-Aug-18 14:00N 45°24' W 083°24'817.4 230 / 181001.5 19.4 17.2
2017-Aug-18 13:30N 45°32' W 083°27'4 8.3
2017-Aug-18 13:00N 45°36' W 083°30'2512.3 230 / 221000.1 5.4 19.6 17.4
2017-Aug-18 11:00N 45°54' W 083°54'1312.7 230 / 14998.8 19.3 17.0
2017-Aug-18 10:00N 46°06' W 084°00'1010.3 180 / 10998.8 19.7 16.8
2017-Aug-18 09:00N 46°12' W 084°12'6 6.0 140 / 8998.8 19.4 16.2
2017-Aug-18 08:00N 46°18' W 084°12'1312.7 100 / 16999.1 18.5 16.1
2017-Aug-18 07:00N 46°30' W 084°18'0 0.0 090 / 121000.1 18.3 15.6
2017-Aug-18 06:00N 46°30' W 084°18'4 4.1 070 / 81000.1 18.0 16.1
2017-Aug-18 05:00N 46°30' W 084°24'8 8.3 080 / 91001.0 18.2 15.0
2017-Aug-18 04:00N 46°30' W 084°36'1010.2 080 / 181001.4 17.8 8.4
2017-Aug-18 03:00N 46°36' W 084°48'1312.7 090 / 181001.4 17.7 14.2
2017-Aug-18 02:00N 46°48' W 084°54'1413.7 110 / 201001.4 17.6 11.9
2017-Aug-18 01:00N 46°54' W 085°12'1413.7 100 / 161001.4 15.9 14.1
2017-Aug-18 00:00N 46°48' W 085°30'1212.3 110 / 201001.0 18.1 15.2
2017-Aug-17 23:00N 46°48' W 085°48'1212.3 090 / 181001.0 18.4 15.8
2017-Aug-17 22:00N 46°48' W 086°06'1413.7 080 / 211001.0 18.4 15.5
2017-Aug-17 21:00N 46°42' W 086°24'1413.7 130 / 121001.4 20.1 14.8
2017-Aug-17 20:00N 46°48' W 086°42'1212.3 110 / 121001.4 5.4 19.3 14.2
2017-Aug-17 19:00N 46°48' W 087°00'1413.7 110 / 181000.7 18.3 13.8
2017-Aug-17 18:00N 46°54' W 087°18'1010.2 110 / 191001.0 17.2 13.3
2017-Aug-17 17:00N 47°00' W 087°30'1312.7 110 / 211002.4 16.2 13.2
2017-Aug-17 16:00N 47°12' W 087°36'1312.7 090 / 281002.7 15.4 12.5
2017-Aug-17 15:00N 47°24' W 087°42'7 7.2 100 / 221004.1 15.7 13.4
2017-Aug-17 14:00N 47°30' W 087°48'1413.5 090 / 221005.1 14.5 11.8
2017-Aug-17 13:00N 47°36' W 088°06'1212.1 070 / 201005.8 14.5 12.1
2017-Aug-17 12:00N 47°36' W 088°24'8 8.1 070 / 241005.8 14.5 11.6
2017-Aug-17 11:00N 47°36' W 088°36'1413.5 060 / 201005.8 14.6 12.4
2017-Aug-17 10:00N 47°30' W 088°54'1212.2 040 / 211006.4 15.3 13.3
2017-Aug-17 09:00N 47°30' W 089°12'2512.5 050 / 211006.4 15.9 14.3
2017-Aug-17 07:00N 47°24' W 089°48'1212.2 050 / 201008.1 16.2 14.2
2017-Aug-17 06:00N 47°24' W 090°06'1212.2 040 / 241008.5 16.3 13.9
2017-Aug-17 05:00N 47°24' W 090°24'1413.6 050 / 281008.1 16.4 15.2
2017-Aug-17 04:00N 47°18' W 090°42'1212.2 050 / 271009.5 16.8 15.1
2017-Aug-17 03:00N 47°18' W 091°00'8 8.1 040 / 261010.2 17.2 15.9
2017-Aug-17 02:00N 47°18' W 091°12'4 4.1 030 / 261010.8 17.3 16.0
2017-Aug-17 01:00N 47°18' W 091°18'0 0.0 020 / 101012.5 16.9 15.9
2017-Aug-17 00:00N 47°18' W 091°18'0 0.0 030 / 111012.5 16.7 16.0
2017-Aug-16 23:00N 47°18' W 091°18'0 0.0 020 / 131012.9 16.4 16.0
2017-Aug-16 22:00N 47°18' W 091°18'0 0.0 040 / 161013.5 16.4 16.0
2017-Aug-16 21:00N 47°18' W 091°18'0 0.0 030 / 141013.9 16.4 16.0
2017-Aug-16 20:00N 47°18' W 091°18'0 0.0 050 / 121014.6 16.7 16.0
2017-Aug-16 19:00N 47°18' W 091°18'0 0.0 040 / 141014.9 17.1 16.0
2017-Aug-16 18:00N 47°18' W 091°18'6 6.0 040 / 161015.2 17.0 15.9
2017-Aug-16 17:00N 47°12' W 091°18'7 7.3 050 / 201014.6 16.5 16.1
2017-Aug-16 16:00N 47°06' W 091°24'1312.8 040 / 221014.2 16.7 16.1
2017-Aug-16 15:00N 46°58' W 091°38'31936.6
2017-Aug-16 15:00N 47°00' W 091°36'917.6 050 / 201014.2 16.9 16.1
2017-Aug-16 14:30N 46°54' W 091°45'611.8
2017-Aug-16 14:00N 46°54' W 091°54'3716.5 040 / 251013.5 17.0 16.5
2017-Aug-16 13:59N 46°51' W 091°53'612.0
2017-Aug-16 13:30N 46°48' W 092°01'4 8.7
2017-Aug-16 13:00N 46°46' W 092°06'2105.8
2017-Aug-16 13:00N 46°48' W 092°06'3 6.6 030 / 151015.2 16.7 17.9
2017-Aug-16 12:30N 46°45' W 092°06'1 2.4
2017-Aug-16 12:00N 46°45' W 092°08'3203.6
2017-Aug-16 12:00N 46°42' W 092°06'3 3.8 010 / 51015.9 16.7 19.3
2017-Aug-16 11:08N 46°45' W 092°08'322.7
2017-Aug-16 11:00N 46°42' W 092°06'320.5 1016.3 16.7 19.3
2017-Aug-16 10:50N 46°45' W 092°08'0 0.0
2017-Aug-16 10:23N 46°45' W 092°08'3 8.2
2017-Aug-16 10:00N 46°42' W 092°06'330.3 030 / 41016.3 16.7 19.3
2017-Aug-16 09:53N 46°45' W 092°08'0 0.0
2017-Aug-16 09:23N 46°45' W 092°08'3 8.2
2017-Aug-16 09:00N 46°42' W 092°06'356.6 160 / 31016.3 16.7 19.3
2017-Aug-16 08:56N 46°45' W 092°08'0 0.0
2017-Aug-16 08:11N 46°45' W 092°08'316.8
2017-Aug-16 08:00N 46°42' W 092°06'357.1 050 / 51016.3 16.5 19.4
2017-Aug-16 07:56N 46°45' W 092°08'0 0.0
2017-Aug-16 07:26N 46°45' W 092°08'3 7.3
2017-Aug-16 07:00N 46°42' W 092°06'356.6 010 / 41016.3 16.7 19.4
2017-Aug-16 06:56N 46°45' W 092°08'0 0.0
2017-Aug-16 06:26N 46°45' W 092°08'3 7.3
2017-Aug-16 06:00N 46°42' W 092°06'350.7 010 / 41016.3 16.8 19.3
2017-Aug-16 05:56N 46°45' W 092°08'2 3.6
2017-Aug-16 05:30N 46°45' W 092°06'2 4.5
2017-Aug-16 05:00N 46°47' W 092°04'1106.9
2017-Aug-16 05:00N 46°48' W 092°06'3 6.4 030 / 111016.3 16.7 16.7
2017-Aug-16 04:30N 46°48' W 092°01'3 6.1
2017-Aug-16 04:00N 46°49' W 091°57'2138.1
2017-Aug-16 04:00N 46°48' W 092°00'511.0 050 / 161016.3 17.3 16.4
2017-Aug-16 03:30N 46°50' W 091°53'5 9.0
2017-Aug-16 03:00N 46°52' W 091°47'2137.3
2017-Aug-16 03:00N 46°54' W 091°48'713.9 060 / 161015.6 17.3 16.5
2017-Aug-16 02:30N 46°54' W 091°38'510.7
2017-Aug-16 02:00N 46°54' W 091°30'3306.4 060 / 171015.6 17.0 15.7
2017-Aug-16 01:59N 46°57' W 091°29'1212.8
2017-Aug-16 01:01N 47°01' W 091°12'012.8
2017-Aug-16 01:00N 47°01' W 091°12'181.6
2017-Aug-16 01:00N 47°00' W 091°12'713.9 070 / 141016.3 17.2 15.9
2017-Aug-16 00:28N 47°03' W 091°03'613.3
2017-Aug-16 00:00N 47°06' W 090°54'1212.3 080 / 121016.6 17.7 15.7
2017-Aug-15 23:00N 47°06' W 090°36'1413.6 100 / 91016.6 16.6 15.6
2017-Aug-15 22:00N 47°12' W 090°18'1212.2 100 / 91016.6 16.3 15.3
2017-Aug-15 21:00N 47°12' W 090°00'1413.6 100 / 91016.6 16.1 13.5
2017-Aug-15 20:00N 47°18' W 089°42'1212.2 090 / 71016.6 16.1 14.3
2017-Aug-15 19:00N 47°18' W 089°24'1413.6 080 / 61016.9 15.9 15.7
2017-Aug-15 18:00N 47°24' W 089°06'1212.2 070 / 81016.9 15.0 13.8
2017-Aug-15 17:00N 47°24' W 088°48'1413.6 060 / 81016.9 14.4 12.8
2017-Aug-15 16:00N 47°30' W 088°30'1212.2 060 / 91016.6 14.2 13.2
2017-Aug-15 15:00N 47°30' W 088°12'1212.2 040 / 101015.9 13.8 11.6
2017-Aug-15 14:00N 47°30' W 087°54'1212.2 020 / 141014.6 14.4 12.1
2017-Aug-15 13:00N 47°30' W 087°36'1413.6 020 / 171013.5 14.4 12.7
2017-Aug-15 12:00N 47°24' W 087°18'1413.6 350 / 141012.5 12.5 10.6
2017-Aug-15 11:00N 47°18' W 087°00'1413.6 280 / 111011.9 13.6 11.0
2017-Aug-15 10:00N 47°12' W 086°42'1212.2 240 / 111011.5 14.3 12.4
2017-Aug-15 09:00N 47°12' W 086°24'1413.6 260 / 131010.8 15.1 13.0
2017-Aug-15 08:00N 47°06' W 086°06'3511.6 260 / 71011.2 15.2 12.9
2017-Aug-15 05:00N 46°54' W 085°18'1413.7 310 / 81010.2 16.8 14.5
2017-Aug-15 04:00N 46°48' W 085°00'1010.2 270 / 131010.2 17.8 14.2
2017-Aug-15 03:00N 46°42' W 084°48'1514.6 270 / 51009.8 18.5 14.5
2017-Aug-15 02:00N 46°30' W 084°36'6 7.9 220 / 101009.8 19.1 16.0
2017-Aug-15 01:15N 46°28' W 084°28'312.8
2017-Aug-15 01:00N 46°30' W 084°24'0 0.0 240 / 41009.8 19.9 15.9
2017-Aug-15 00:00N 46°30' W 084°24'4 4.1 270 / 31010.8 21.1 15.6
2017-Aug-14 23:00N 46°30' W 084°18'7 7.3 180 / 61010.3 20.9 15.6
2017-Aug-14 22:00N 46°24' W 084°12'7 7.3 160 / 111010.3 20.8 15.6
2017-Aug-14 21:00N 46°18' W 084°06'519.4 160 / 81011.0 20.8 15.9
2017-Aug-14 20:44N 46°13' W 084°07'2 9.8
2017-Aug-14 20:30N 46°11' W 084°06'612.4
2017-Aug-14 20:00N 46°06' W 084°00'1 8.2 140 / 101011.6 20.4 16.7
2017-Aug-14 19:55N 46°06' W 084°01'410.3
2017-Aug-14 19:30N 46°03' W 083°57'5 9.6
2017-Aug-14 19:00N 45°59' W 083°53'1103.3
2017-Aug-14 19:00N 46°00' W 083°54'714.1 130 / 91012.0 19.8 17.0
2017-Aug-14 18:30N 45°54' W 083°48'612.7
2017-Aug-14 18:00N 45°52' W 083°40'3213.0
2017-Aug-14 18:00N 45°54' W 083°42'917.7 150 / 131012.3 20.3 17.4
2017-Aug-14 17:30N 45°49' W 083°32'612.8
2017-Aug-14 17:00N 45°46' W 083°24'2240.2
2017-Aug-14 17:00N 45°48' W 083°24'510.5 160 / 111013.010.8 19.6 17.1
2017-Aug-14 16:30N 45°49' W 083°17'611.2
2017-Aug-14 16:00N 45°54' W 083°12'147.8 170 / 131013.0 20.1 17.8
2017-Aug-14 15:58N 45°55' W 083°14'1 1.4
2017-Aug-14 15:00N 45°54' W 083°12'1 1.1 200 / 51013.7 19.9 17.9
2017-Aug-14 13:48N 45°55' W 083°13'0 0.0
2017-Aug-14 13:24N 45°55' W 083°13'0 0.0
2017-Aug-14 11:51N 45°55' W 083°13'0 0.0
2017-Aug-14 10:30N 45°55' W 083°13'0 0.0
2017-Aug-14 10:00N 45°55' W 083°13'1 1.0
2017-Aug-14 09:16N 45°55' W 083°14'2 6.9
2017-Aug-14 09:00N 45°54' W 083°12'284.6 340 / 21014.3 19.1 17.7
2017-Aug-14 08:58N 45°53' W 083°15'612.6
2017-Aug-14 08:30N 45°47' W 083°17'612.5
2017-Aug-14 08:00N 45°41' W 083°18'1103.0
2017-Aug-14 08:00N 45°42' W 083°18'715.2 300 / 91014.3 19.8 17.3
2017-Aug-14 07:30N 45°35' W 083°20'612.5
2017-Aug-14 07:00N 45°29' W 083°22'612.6
2017-Aug-14 06:30N 45°22' W 083°24'4 8.6
2017-Aug-14 06:00N 45°18' W 083°24'0 0.0 250 / 81015.0 18.9 17.7
2017-Aug-14 05:00N 45°18' W 083°24'0 0.0 190 / 21015.4 19.3 18.0
2017-Aug-14 04:00N 45°18' W 083°24'0 0.0 210 / 31015.4 19.9 17.9
2017-Aug-14 03:00N 45°18' W 083°24'0 0.0 190 / 61015.4 20.0 18.3
2017-Aug-14 02:00N 45°18' W 083°24'0 0.0 160 / 31015.0 20.6 18.4
2017-Aug-14 01:00N 45°18' W 083°24'0 0.0 150 / 21014.7 21.3 18.3
2017-Aug-14 00:00N 45°18' W 083°24'0 0.0 140 / 31015.0 22.0 18.4
2017-Aug-13 23:00N 45°18' W 083°24'1 3.7 140 / 101015.0 22.8 18.2
2017-Aug-13 22:45N 45°19' W 083°25'0 1.7
2017-Aug-13 22:30N 45°19' W 083°25'1 2.3
2017-Aug-13 22:00N 45°18' W 083°24'0 0.0 140 / 141015.4 20.2 18.0
2017-Aug-13 21:00N 45°18' W 083°24'4 4.2 120 / 141016.0 20.3 18.1
2017-Aug-13 20:00N 45°18' W 083°18'1514.7 160 / 101016.7 21.4 17.9
2017-Aug-13 19:00N 45°06' W 083°06'1212.0 140 / 51016.7 20.4 17.3
2017-Aug-13 18:00N 44°54' W 083°06'1312.7 170 / 91017.1 19.9 17.4
2017-Aug-13 17:00N 44°42' W 083°12'1212.0 180 / 91017.4 18.8 16.9
2017-Aug-13 16:00N 44°30' W 083°12'1212.0 190 / 41017.4 18.9 17.3
2017-Aug-13 15:00N 44°18' W 083°12'1817.6 330 / 21017.4 18.3 17.8
2017-Aug-13 14:00N 44°06' W 083°30'7 7.4 320 / 101017.4 17.6 18.1
2017-Aug-13 13:00N 44°00' W 083°36'1312.8 310 / 121017.1 17.5 19.1
2017-Aug-13 12:00N 43°48' W 083°42'1312.8 330 / 131017.4 18.1 19.8
2017-Aug-13 11:00N 43°36' W 083°48'4 4.3 270 / 51017.4 12.8 21.2
2017-Aug-13 10:00N 43°36' W 083°54'6 6.0 290 / 41017.4 13.2 21.1
2017-Aug-13 09:00N 43°30' W 083°54'0 0.0 270 / 51017.1 14.5 21.0
2017-Aug-13 08:00N 43°30' W 083°54'6 6.0 260 / 41017.1 13.9 21.1
2017-Aug-13 07:00N 43°24' W 083°54'6 6.0 310 / 21016.7 15.4 21.5
2017-Aug-13 06:00N 43°30' W 083°54'0 0.0 310 / 21016.7 16.0 21.2
2017-Aug-13 05:00N 43°30' W 083°54'0 0.0 300 / 31016.4 16.6 21.1
2017-Aug-13 04:00N 43°30' W 083°54'0 0.0 300 / 51016.4 17.6 21.2
2017-Aug-13 03:00N 43°30' W 083°54'0 0.0 280 / 31016.0 18.2 21.2
2017-Aug-13 02:00N 43°30' W 083°54'0 0.0 040 1015.7 18.6 21.4
2017-Aug-13 01:00N 43°30' W 083°54'0 0.0 210 / 31015.4 20.0 21.0
2017-Aug-13 00:00N 43°30' W 083°54'6 6.0 190 / 91015.0 20.5 21.2
2017-Aug-12 23:00N 43°36' W 083°54'0 0.0 350 / 21015.0 21.7 21.5
2017-Aug-12 22:00N 43°36' W 083°54'0 0.0 090 / 31015.0 20.6 21.4
2017-Aug-12 21:00N 43°36' W 083°54'4 4.3 340 / 21015.0 19.8 21.4
2017-Aug-12 20:00N 43°36' W 083°48'   020 / 41015.0 22.2 21.4

Dump ship's entire track history